Saint Libory, Nebraska
Current Conditions -  °F | °C
As of 3:53 PM on Monday 22 Dec 2014 (Local Time) from KGRI Reporting Station
Overcast Overcast  
Wind Chill: 35°   Ceiling: 5500
Heat Index: 45°   Visibility: 10mi
Dew Point: 30°   Wind: 30mph
Humidity: 56%   Direction: 330°NNW
Pressure: 29.48"   Gusts: 38mph
Location:  41.08°N, 98.36°W
Report Text: KGRI 222153Z 33026G33KT 10SM FEW041 SCT048 OVC055 07/M01 A2948 RMK AO2 PK WND 33033/2153 SLP994 T00721011
Loading
Personal Weather Stations






























Interactive Weather Map New forecast layout! Learn more

10-Day Weather Forecast

Advertisements
Track Severe Weather on mobile